Portada
METAR-TAF:

METAR-TAF

Aeropuertos :

Aeropuerto de Oujda Angads

Oujda, Marruecos

latitud: 34-47N, longitud: 001-56W, altitud: 468 m

Observación

El informe se hizo hace 1 hora y 6 minutos, a las 12:00 UTC
Viento 2 kt con dirección variable
Temperatura 22°C
Humedad 23%
Presión 1027 hPa
Visibilidad 10 km o más
sin nubes por debajo de 1500 m y sin presencia de cumulonimbus.

METAR: GMFO 101200Z VRB02KT CAVOK 22/M00 Q1027 NOSIG

Hora: 13:06 (13:06 UTC)

Pronóstico

El informe se hizo hace 2 horas y 6 minutos, a las 11:00 UTC
Pronóstico válido del 10 a las 12 UTC al 11 a las 18 UTC
Viento 10 kt del norte-noroeste
Visibilidad 10 km o más
sin nubes por debajo de 1500 m y sin presencia de cumulonimbus.
Evolucionando progresivamente
del 10 a las 20 UTC al 10 a las 22 UTC
Viento 2 kt con dirección variable

TAF: GMFO 101100Z 1012/1118 34010KT CAVOK BECMG 1020/1022 VRB02KT

Observaciones y pronósticos meteorológicos de más de 4000 aeropuertos (mensajes METAR y TAF).

Los puntos amarillos y rojos representan las estaciones disponibles.

Ponga el ratón en el punto deseado para ver el nombre de la estación.

Haga clic para ver las observaciones y los pronósticos meteorológicos.

Para cambiar el mapa : haga clic en los botones verdes con una cruz de color negro para hacer un zoom, en el botón verde con un guión para alejar o en las flechas verdes para mapas adyacentes.


METAR-TAF: